STS weather

Charles M. Schulz Sonoma County Airport
Santa Rosa, California, United States

Public forecast

Using degrees Fahrenheit for public forecast. Weather courtesy of forecast.io.

METAR (pilot weather report)

Retrieved 2019/05/21 13:22 UTC (0 seconds ago):

KSTS 211322Z AUTO 13004KT 10SM BKN024 BKN028 OVC055 11/09 A2990 RMK AO2 T01060094

TAF (pilot weather forecast)

Retrieved 2019/05/21 12:24 UTC (46 minutes ago):

TAF KSTS 211121Z 2112/2212 25006KT P6SM -SHRA BKN030 OVC050 FM211400 26011KT P6SM -SHRA BKN025 FM211800 26015KT P6SM VCSH BKN050 FM220200 29015KT P6SM VCSH SCT050 FM220600 32007KT P6SM SCT050